sensor_id;sensor_type;location;lat;lon;timestamp;pressure;altitude;pressure_sealevel;temperature;humidity
44103;BME280;29769;42.178;24.742;2023-03-26T00:02:33;98899.78;;;9.52;100.00
44103;BME280;29769;42.178;24.742;2023-03-26T00:05:18;98908.31;;;9.23;100.00
44103;BME280;29769;42.178;24.742;2023-03-26T00:08:03;98903.94;;;9.24;100.00
44103;BME280;29769;42.178;24.742;2023-03-26T00:10:48;98905.44;;;9.35;100.00
44103;BME280;29769;42.178;24.742;2023-03-26T00:13:34;98911.31;;;9.45;100.00
44103;BME280;29769;42.178;24.742;2023-03-26T00:16:19;98895.78;;;9.36;100.00
44103;BME280;29769;42.178;24.742;2023-03-26T00:19:04;98906.00;;;9.48;100.00
44103;BME280;29769;42.178;24.742;2023-03-26T00:21:49;98904.25;;;9.49;100.00
44103;BME280;29769;42.178;24.742;2023-03-26T00:24:35;98892.88;;;9.48;100.00
44103;BME280;29769;42.178;24.742;2023-03-26T00:27:21;98893.56;;;9.56;100.00
44103;BME280;29769;42.178;24.742;2023-03-26T00:30:06;98887.09;;;9.69;100.00
44103;BME280;29769;42.178;24.742;2023-03-26T00:32:50;98896.47;;;9.81;100.00
44103;BME280;29769;42.178;24.742;2023-03-26T00:35:36;98878.81;;;9.86;100.00
44103;BME280;29769;42.178;24.742;2023-03-26T00:38:22;98895.03;;;10.02;100.00
44103;BME280;29769;42.178;24.742;2023-03-26T00:41:09;98870.75;;;9.94;100.00
44103;BME280;29769;42.178;24.742;2023-03-26T00:44:01;98885.03;;;10.17;100.00
44103;BME280;29769;42.178;24.742;2023-03-26T00:46:46;98883.13;;;10.22;100.00
44103;BME280;29769;42.178;24.742;2023-03-26T00:49:31;98869.03;;;10.27;100.00
44103;BME280;29769;42.178;24.742;2023-03-26T00:52:16;98876.44;;;10.43;100.00
44103;BME280;29769;42.178;24.742;2023-03-26T00:55:02;98885.72;;;10.56;100.00
44103;BME280;29769;42.178;24.742;2023-03-26T00:57:47;98883.44;;;10.75;100.00
44103;BME280;29769;42.178;24.742;2023-03-26T01:00:34;98881.16;;;10.92;100.00
44103;BME280;29769;42.178;24.742;2023-03-26T01:03:20;98881.78;;;11.00;100.00
44103;BME280;29769;42.178;24.742;2023-03-26T01:06:13;98884.22;;;11.08;100.00
44103;BME280;29769;42.178;24.742;2023-03-26T01:09:15;98894.31;;;11.22;100.00
44103;BME280;29769;42.178;24.742;2023-03-26T01:12:02;98900.25;;;11.28;100.00
44103;BME280;29769;42.178;24.742;2023-03-26T01:14:50;98918.50;;;11.05;100.00
44103;BME280;29769;42.178;24.742;2023-03-26T01:17:35;98920.63;;;10.92;100.00
44103;BME280;29769;42.178;24.742;2023-03-26T01:20:24;98905.06;;;10.85;100.00
44103;BME280;29769;42.178;24.742;2023-03-26T01:23:19;98910.50;;;10.79;100.00
44103;BME280;29769;42.178;24.742;2023-03-26T01:26:30;98919.22;;;10.81;100.00
44103;BME280;29769;42.178;24.742;2023-03-26T01:29:32;98920.72;;;10.89;100.00
44103;BME280;29769;42.178;24.742;2023-03-26T01:35:20;98934.34;;;10.73;100.00
44103;BME280;29769;42.178;24.742;2023-03-26T01:41:09;98928.00;;;10.49;100.00
44103;BME280;29769;42.178;24.742;2023-03-26T01:47:14;98933.63;;;10.98;100.00
44103;BME280;29769;42.178;24.742;2023-03-26T01:50:01;98935.06;;;11.08;100.00
44103;BME280;29769;42.178;24.742;2023-03-26T01:52:46;98936.63;;;11.15;100.00
44103;BME280;29769;42.178;24.742;2023-03-26T01:58:37;98927.63;;;11.23;100.00
44103;BME280;29769;42.178;24.742;2023-03-26T02:01:28;98942.28;;;11.31;100.00
44103;BME280;29769;42.178;24.742;2023-03-26T02:04:22;98924.19;;;11.21;100.00
44103;BME280;29769;42.178;24.742;2023-03-26T02:07:22;98938.75;;;11.32;100.00
44103;BME280;29769;42.178;24.742;2023-03-26T02:10:13;98933.00;;;11.47;100.00
44103;BME280;29769;42.178;24.742;2023-03-26T02:12:59;98895.25;;;11.48;100.00
44103;BME280;29769;42.178;24.742;2023-03-26T02:16:02;98923.38;;;12.02;100.00
44103;BME280;29769;42.178;24.742;2023-03-26T02:18:47;98922.09;;;12.40;100.00
44103;BME280;29769;42.178;24.742;2023-03-26T02:21:35;98929.75;;;12.71;100.00
44103;BME280;29769;42.178;24.742;2023-03-26T02:24:20;98915.22;;;12.84;100.00
44103;BME280;29769;42.178;24.742;2023-03-26T02:27:05;98925.44;;;12.93;100.00
44103;BME280;29769;42.178;24.742;2023-03-26T02:29:56;98908.25;;;12.81;100.00
44103;BME280;29769;42.178;24.742;2023-03-26T02:32:42;98926.81;;;13.03;100.00
44103;BME280;29769;42.178;24.742;2023-03-26T02:35:28;98927.72;;;13.02;100.00
44103;BME280;29769;42.178;24.742;2023-03-26T02:38:16;98932.88;;;13.05;100.00
44103;BME280;29769;42.178;24.742;2023-03-26T02:41:03;98948.47;;;13.13;100.00
44103;BME280;29769;42.178;24.742;2023-03-26T02:44:04;98953.47;;;13.20;100.00
44103;BME280;29769;42.178;24.742;2023-03-26T02:47:08;98917.78;;;13.09;100.00
44103;BME280;29769;42.178;24.742;2023-03-26T02:50:19;98949.66;;;13.27;100.00
44103;BME280;29769;42.178;24.742;2023-03-26T02:53:24;98953.00;;;13.32;100.00
44103;BME280;29769;42.178;24.742;2023-03-26T02:56:20;98931.69;;;13.37;100.00
44103;BME280;29769;42.178;24.742;2023-03-26T02:59:21;98948.47;;;13.36;100.00
44103;BME280;29769;42.178;24.742;2023-03-26T03:02:18;98969.94;;;13.27;100.00
44103;BME280;29769;42.178;24.742;2023-03-26T03:05:04;98961.72;;;12.86;100.00
44103;BME280;29769;42.178;24.742;2023-03-26T03:07:51;98954.97;;;12.79;100.00
44103;BME280;29769;42.178;24.742;2023-03-26T03:10:41;98947.00;;;13.04;100.00
44103;BME280;29769;42.178;24.742;2023-03-26T03:13:34;98957.88;;;12.95;100.00
44103;BME280;29769;42.178;24.742;2023-03-26T03:16:19;98971.81;;;12.75;100.00
44103;BME280;29769;42.178;24.742;2023-03-26T03:19:04;98957.75;;;12.50;100.00
44103;BME280;29769;42.178;24.742;2023-03-26T03:21:56;98984.50;;;12.39;100.00
44103;BME280;29769;42.178;24.742;2023-03-26T03:24:41;98983.22;;;12.26;100.00
44103;BME280;29769;42.178;24.742;2023-03-26T03:27:28;98988.47;;;12.26;100.00
44103;BME280;29769;42.178;24.742;2023-03-26T03:30:24;98988.84;;;12.40;100.00
44103;BME280;29769;42.178;24.742;2023-03-26T03:33:28;98990.28;;;12.24;100.00
44103;BME280;29769;42.178;24.742;2023-03-26T03:36:14;98985.06;;;12.23;100.00
44103;BME280;29769;42.178;24.742;2023-03-26T03:39:02;98999.56;;;12.10;100.00
44103;BME280;29769;42.178;24.742;2023-03-26T03:41:49;99007.00;;;11.97;100.00
44103;BME280;29769;42.178;24.742;2023-03-26T03:44:35;99007.09;;;11.94;100.00
44103;BME280;29769;42.178;24.742;2023-03-26T03:47:23;99001.44;;;12.06;100.00
44103;BME280;29769;42.178;24.742;2023-03-26T03:50:09;99008.06;;;12.18;100.00
44103;BME280;29769;42.178;24.742;2023-03-26T03:52:58;99010.78;;;12.16;100.00
44103;BME280;29769;42.178;24.742;2023-03-26T03:55:43;99017.44;;;12.00;100.00
44103;BME280;29769;42.178;24.742;2023-03-26T03:58:37;99016.69;;;11.67;100.00
44103;BME280;29769;42.178;24.742;2023-03-26T04:01:29;99037.97;;;11.59;100.00
44103;BME280;29769;42.178;24.742;2023-03-26T04:04:19;99025.66;;;11.62;100.00
44103;BME280;29769;42.178;24.742;2023-03-26T04:07:34;99026.53;;;11.60;100.00
44103;BME280;29769;42.178;24.742;2023-03-26T04:10:22;99035.28;;;11.32;100.00
44103;BME280;29769;42.178;24.742;2023-03-26T04:13:19;99035.53;;;10.92;100.00
44103;BME280;29769;42.178;24.742;2023-03-26T04:16:24;99039.41;;;10.79;100.00
44103;BME280;29769;42.178;24.742;2023-03-26T04:19:09;99012.75;;;10.91;100.00
44103;BME280;29769;42.178;24.742;2023-03-26T04:21:54;99021.78;;;11.13;100.00
44103;BME280;29769;42.178;24.742;2023-03-26T04:24:39;99024.31;;;11.47;100.00
44103;BME280;29769;42.178;24.742;2023-03-26T04:28:05;99029.63;;;11.45;100.00
44103;BME280;29769;42.178;24.742;2023-03-26T04:31:19;99049.69;;;11.49;100.00
44103;BME280;29769;42.178;24.742;2023-03-26T04:34:15;99039.25;;;11.46;100.00
44103;BME280;29769;42.178;24.742;2023-03-26T04:37:19;99042.31;;;11.31;100.00
44103;BME280;29769;42.178;24.742;2023-03-26T04:40:19;99053.34;;;11.14;100.00
44103;BME280;29769;42.178;24.742;2023-03-26T04:43:26;99061.34;;;11.10;100.00
44103;BME280;29769;42.178;24.742;2023-03-26T04:46:21;99060.06;;;11.25;100.00
44103;BME280;29769;42.178;24.742;2023-03-26T04:49:20;99074.84;;;11.30;100.00
44103;BME280;29769;42.178;24.742;2023-03-26T04:52:05;99069.78;;;11.53;100.00
44103;BME280;29769;42.178;24.742;2023-03-26T04:58:16;99059.16;;;11.86;100.00
44103;BME280;29769;42.178;24.742;2023-03-26T05:01:15;99096.72;;;11.94;100.00
44103;BME280;29769;42.178;24.742;2023-03-26T05:04:02;99067.88;;;11.89;100.00
44103;BME280;29769;42.178;24.742;2023-03-26T05:06:47;99097.44;;;11.99;100.00
44103;BME280;29769;42.178;24.742;2023-03-26T05:09:40;99094.66;;;12.03;100.00
44103;BME280;29769;42.178;24.742;2023-03-26T05:12:31;99096.75;;;12.22;100.00
44103;BME280;29769;42.178;24.742;2023-03-26T05:15:23;99114.75;;;12.35;100.00
44103;BME280;29769;42.178;24.742;2023-03-26T05:18:17;99100.47;;;12.42;100.00
44103;BME280;29769;42.178;24.742;2023-03-26T05:21:06;99118.66;;;12.50;100.00
44103;BME280;29769;42.178;24.742;2023-03-26T05:23:51;99116.28;;;12.69;100.00
44103;BME280;29769;42.178;24.742;2023-03-26T05:26:38;99104.72;;;12.73;100.00
44103;BME280;29769;42.178;24.742;2023-03-26T05:29:23;99088.72;;;12.77;100.00
44103;BME280;29769;42.178;24.742;2023-03-26T05:32:11;99091.50;;;12.99;100.00
44103;BME280;29769;42.178;24.742;2023-03-26T05:34:56;99032.56;;;12.74;100.00
44103;BME280;29769;42.178;24.742;2023-03-26T05:37:42;99084.69;;;13.18;100.00
44103;BME280;29769;42.178;24.742;2023-03-26T05:40:28;99108.81;;;13.34;100.00
44103;BME280;29769;42.178;24.742;2023-03-26T05:43:16;99109.66;;;13.34;100.00
44103;BME280;29769;42.178;24.742;2023-03-26T05:46:18;99101.16;;;13.50;100.00
44103;BME280;29769;42.178;24.742;2023-03-26T05:49:04;99096.81;;;13.49;100.00
44103;BME280;29769;42.178;24.742;2023-03-26T05:51:52;99096.59;;;13.55;100.00
44103;BME280;29769;42.178;24.742;2023-03-26T05:54:55;99082.63;;;13.74;100.00
44103;BME280;29769;42.178;24.742;2023-03-26T05:57:58;99105.84;;;13.66;100.00
44103;BME280;29769;42.178;24.742;2023-03-26T06:01:06;99102.53;;;13.85;100.00
44103;BME280;29769;42.178;24.742;2023-03-26T06:04:12;99124.03;;;13.99;100.00
44103;BME280;29769;42.178;24.742;2023-03-26T06:07:03;99116.56;;;14.08;100.00
44103;BME280;29769;42.178;24.742;2023-03-26T06:09:48;99132.38;;;14.33;100.00
44103;BME280;29769;42.178;24.742;2023-03-26T06:12:33;99148.09;;;14.59;100.00
44103;BME280;29769;42.178;24.742;2023-03-26T06:15:18;99141.69;;;14.65;100.00
44103;BME280;29769;42.178;24.742;2023-03-26T06:18:11;99140.09;;;14.83;100.00
44103;BME280;29769;42.178;24.742;2023-03-26T06:21:16;99135.22;;;14.72;100.00
44103;BME280;29769;42.178;24.742;2023-03-26T06:24:06;99171.16;;;14.99;100.00
44103;BME280;29769;42.178;24.742;2023-03-26T06:27:07;99158.34;;;15.10;100.00
44103;BME280;29769;42.178;24.742;2023-03-26T06:30:11;99142.31;;;15.13;100.00
44103;BME280;29769;42.178;24.742;2023-03-26T06:33:03;99140.75;;;15.30;90.42
44103;BME280;29769;42.178;24.742;2023-03-26T06:35:55;99145.56;;;15.20;86.58
44103;BME280;29769;42.178;24.742;2023-03-26T06:38:41;99180.22;;;15.36;82.77
44103;BME280;29769;42.178;24.742;2023-03-26T06:41:27;99171.16;;;15.41;83.36
44103;BME280;29769;42.178;24.742;2023-03-26T06:44:25;99155.34;;;15.60;83.29
44103;BME280;29769;42.178;24.742;2023-03-26T06:47:28;99164.03;;;16.02;77.83
44103;BME280;29769;42.178;24.742;2023-03-26T06:50:16;99152.47;;;16.22;78.38
44103;BME280;29769;42.178;24.742;2023-03-26T06:53:30;99136.00;;;16.16;76.39
44103;BME280;29769;42.178;24.742;2023-03-26T06:56:28;99166.13;;;16.33;75.81
44103;BME280;29769;42.178;24.742;2023-03-26T06:59:21;99169.22;;;16.24;74.29
44103;BME280;29769;42.178;24.742;2023-03-26T07:02:25;99149.38;;;16.50;69.94
44103;BME280;29769;42.178;24.742;2023-03-26T07:05:42;99140.50;;;16.51;67.38
44103;BME280;29769;42.178;24.742;2023-03-26T07:08:47;99166.69;;;16.59;67.54
44103;BME280;29769;42.178;24.742;2023-03-26T07:11:55;99187.59;;;16.66;64.47
44103;BME280;29769;42.178;24.742;2023-03-26T07:15:00;99182.28;;;16.66;63.38
44103;BME280;29769;42.178;24.742;2023-03-26T07:18:04;99155.16;;;17.13;59.66
44103;BME280;29769;42.178;24.742;2023-03-26T07:20:52;99177.56;;;17.60;59.21
44103;BME280;29769;42.178;24.742;2023-03-26T07:23:39;99155.25;;;17.46;56.11
44103;BME280;29769;42.178;24.742;2023-03-26T07:26:55;99167.00;;;17.24;58.35
44103;BME280;29769;42.178;24.742;2023-03-26T07:47:32;99155.69;;;18.21;50.60
44103;BME280;29769;42.178;24.742;2023-03-26T07:50:44;99128.75;;;17.61;46.90
44103;BME280;29769;42.178;24.742;2023-03-26T07:53:41;99168.69;;;18.58;47.62
44103;BME280;29769;42.178;24.742;2023-03-26T07:56:55;99134.53;;;18.49;48.13
44103;BME280;29769;42.178;24.742;2023-03-26T08:00:16;99131.63;;;18.07;47.87
44103;BME280;29769;42.178;24.742;2023-03-26T08:03:12;99137.06;;;18.21;48.88
44103;BME280;29769;42.178;24.742;2023-03-26T08:13:22;99103.81;;;18.28;48.81
44103;BME280;29769;42.178;24.742;2023-03-26T08:16:17;99093.34;;;17.76;48.57
44103;BME280;29769;42.178;24.742;2023-03-26T08:19:24;99086.28;;;17.93;48.84
44103;BME280;29769;42.178;24.742;2023-03-26T08:22:20;99093.69;;;18.66;47.58
44103;BME280;29769;42.178;24.742;2023-03-26T08:28:28;99122.00;;;19.13;48.02
44103;BME280;29769;42.178;24.742;2023-03-26T08:31:17;99089.47;;;18.62;46.46
44103;BME280;29769;42.178;24.742;2023-03-26T08:34:09;99134.94;;;19.04;47.66
44103;BME280;29769;42.178;24.742;2023-03-26T08:36:55;99125.34;;;18.86;46.13
44103;BME280;29769;42.178;24.742;2023-03-26T08:39:40;99094.69;;;18.79;45.89
44103;BME280;29769;42.178;24.742;2023-03-26T08:54:29;99081.41;;;19.37;42.38
44103;BME280;29769;42.178;24.742;2023-03-26T08:57:30;99107.19;;;19.95;42.29
44103;BME280;29769;42.178;24.742;2023-03-26T09:00:39;99117.78;;;20.25;40.72
44103;BME280;29769;42.178;24.742;2023-03-26T09:06:40;99106.25;;;19.68;39.91
44103;BME280;29769;42.178;24.742;2023-03-26T09:16:57;99104.94;;;20.85;36.38
44103;BME280;29769;42.178;24.742;2023-03-26T09:26:26;99095.59;;;21.05;36.97
44103;BME280;29769;42.178;24.742;2023-03-26T09:35:14;99053.47;;;20.69;34.26
44103;BME280;29769;42.178;24.742;2023-03-26T09:41:34;99076.63;;;21.60;34.34
44103;BME280;29769;42.178;24.742;2023-03-26T09:47:50;99041.06;;;21.07;33.37
44103;BME280;29769;42.178;24.742;2023-03-26T09:59:46;99024.28;;;21.94;32.73
44103;BME280;29769;42.178;24.742;2023-03-26T10:02:55;99026.00;;;21.57;31.50
44103;BME280;29769;42.178;24.742;2023-03-26T10:06:00;99031.75;;;22.01;32.27
44103;BME280;29769;42.178;24.742;2023-03-26T10:09:28;99025.03;;;21.58;30.85
44103;BME280;29769;42.178;24.742;2023-03-26T10:12:35;98985.44;;;22.12;30.73
44103;BME280;29769;42.178;24.742;2023-03-26T10:15:38;99047.66;;;22.52;31.03
44103;BME280;29769;42.178;24.742;2023-03-26T10:18:40;99023.53;;;22.28;29.84
44103;BME280;29769;42.178;24.742;2023-03-26T10:22:20;99002.53;;;22.93;30.10
44103;BME280;29769;42.178;24.742;2023-03-26T10:25:04;99022.56;;;22.77;29.29
44103;BME280;29769;42.178;24.742;2023-03-26T10:34:12;99022.69;;;23.56;29.50
44103;BME280;29769;42.178;24.742;2023-03-26T10:40:18;98996.16;;;22.83;28.54
44103;BME280;29769;42.178;24.742;2023-03-26T10:50:10;98995.81;;;22.88;27.09
44103;BME280;29769;42.178;24.742;2023-03-26T10:56:27;98975.19;;;23.68;27.02
44103;BME280;29769;42.178;24.742;2023-03-26T10:59:16;99002.16;;;23.88;26.31
44103;BME280;29769;42.178;24.742;2023-03-26T11:08:22;98992.94;;;25.20;25.58
44103;BME280;29769;42.178;24.742;2023-03-26T11:11:16;98972.06;;;24.28;25.65
44103;BME280;29769;42.178;24.742;2023-03-26T11:14:11;98978.56;;;25.10;24.48
44103;BME280;29769;42.178;24.742;2023-03-26T11:17:03;98986.47;;;24.70;24.83
44103;BME280;29769;42.178;24.742;2023-03-26T11:20:06;98968.22;;;25.56;24.50
44103;BME280;29769;42.178;24.742;2023-03-26T11:26:06;98970.13;;;24.30;24.25
44103;BME280;29769;42.178;24.742;2023-03-26T11:29:15;98969.00;;;25.47;23.36
44103;BME280;29769;42.178;24.742;2023-03-26T11:32:15;98960.25;;;25.04;23.69
44103;BME280;29769;42.178;24.742;2023-03-26T11:37:53;98951.38;;;26.13;23.79
44103;BME280;29769;42.178;24.742;2023-03-26T11:40:44;98954.63;;;25.07;24.10
44103;BME280;29769;42.178;24.742;2023-03-26T11:43:43;98895.03;;;24.91;25.09
44103;BME280;29769;42.178;24.742;2023-03-26T11:46:29;98927.56;;;25.08;23.80
44103;BME280;29769;42.178;24.742;2023-03-26T11:49:19;98925.38;;;24.81;23.99
44103;BME280;29769;42.178;24.742;2023-03-26T11:52:10;98914.78;;;25.01;24.28
44103;BME280;29769;42.178;24.742;2023-03-26T11:54:55;98925.69;;;24.47;24.06
44103;BME280;29769;42.178;24.742;2023-03-26T11:57:49;98953.38;;;25.11;23.73
44103;BME280;29769;42.178;24.742;2023-03-26T12:00:36;98946.44;;;26.19;22.40
44103;BME280;29769;42.178;24.742;2023-03-26T12:03:23;98943.63;;;26.78;21.73
44103;BME280;29769;42.178;24.742;2023-03-26T12:06:23;98919.22;;;27.35;22.33
44103;BME280;29769;42.178;24.742;2023-03-26T12:09:16;98939.50;;;26.83;22.11
44103;BME280;29769;42.178;24.742;2023-03-26T12:12:02;98936.97;;;26.24;22.81
44103;BME280;29769;42.178;24.742;2023-03-26T12:14:49;98926.56;;;25.60;23.41
44103;BME280;29769;42.178;24.742;2023-03-26T12:17:38;98920.53;;;25.17;23.02
44103;BME280;29769;42.178;24.742;2023-03-26T12:20:29;98933.13;;;26.46;23.13
44103;BME280;29769;42.178;24.742;2023-03-26T12:26:42;98914.28;;;30.53;19.19
44103;BME280;29769;42.178;24.742;2023-03-26T12:29:32;98903.19;;;31.91;18.22
44103;BME280;29769;42.178;24.742;2023-03-26T12:32:18;98904.56;;;29.16;19.72
44103;BME280;29769;42.178;24.742;2023-03-26T12:35:09;98911.97;;;27.73;20.79
44103;BME280;29769;42.178;24.742;2023-03-26T12:41:11;98902.59;;;26.84;21.92
44103;BME280;29769;42.178;24.742;2023-03-26T12:47:29;98896.81;;;28.35;19.66
44103;BME280;29769;42.178;24.742;2023-03-26T12:50:14;98887.19;;;28.58;19.49
44103;BME280;29769;42.178;24.742;2023-03-26T12:56:44;98876.88;;;27.36;20.43
44103;BME280;29769;42.178;24.742;2023-03-26T12:59:42;98863.91;;;27.39;20.90
44103;BME280;29769;42.178;24.742;2023-03-26T13:05:36;98859.22;;;26.29;20.14
44103;BME280;29769;42.178;24.742;2023-03-26T13:15:22;98860.91;;;27.79;19.37
44103;BME280;29769;42.178;24.742;2023-03-26T13:21:15;98853.22;;;27.57;19.60
44103;BME280;29769;42.178;24.742;2023-03-26T13:34:17;98837.38;;;27.62;20.25
44103;BME280;29769;42.178;24.742;2023-03-26T13:37:32;98832.19;;;28.93;18.56
44103;BME280;29769;42.178;24.742;2023-03-26T13:40:33;98843.16;;;26.47;19.84
44103;BME280;29769;42.178;24.742;2023-03-26T13:46:48;98829.69;;;25.49;20.20
44103;BME280;29769;42.178;24.742;2023-03-26T13:49:56;98827.69;;;26.01;19.91
44103;BME280;29769;42.178;24.742;2023-03-26T13:55:46;98822.56;;;26.46;19.23
44103;BME280;29769;42.178;24.742;2023-03-26T13:58:45;98842.84;;;25.92;20.44
44103;BME280;29769;42.178;24.742;2023-03-26T14:01:40;98827.75;;;25.11;21.88
44103;BME280;29769;42.178;24.742;2023-03-26T14:04:32;98833.94;;;24.81;22.28
44103;BME280;29769;42.178;24.742;2023-03-26T14:10:39;98831.22;;;24.51;21.79
44103;BME280;29769;42.178;24.742;2023-03-26T14:16:42;98823.25;;;24.70;22.36
44103;BME280;29769;42.178;24.742;2023-03-26T14:22:34;98834.56;;;24.44;21.82
44103;BME280;29769;42.178;24.742;2023-03-26T14:41:45;98830.16;;;24.43;21.99
44103;BME280;29769;42.178;24.742;2023-03-26T14:44:59;98822.81;;;24.45;21.74
44103;BME280;29769;42.178;24.742;2023-03-26T14:48:18;98836.50;;;25.13;21.45
44103;BME280;29769;42.178;24.742;2023-03-26T14:54:03;98823.31;;;25.50;20.96
44103;BME280;29769;42.178;24.742;2023-03-26T15:13:20;98810.63;;;23.88;23.26
44103;BME280;29769;42.178;24.742;2023-03-26T15:16:22;98811.28;;;24.01;24.04
44103;BME280;29769;42.178;24.742;2023-03-26T15:31:38;98804.38;;;23.44;22.17
44103;BME280;29769;42.178;24.742;2023-03-26T15:38:35;98797.81;;;23.80;22.72
44103;BME280;29769;42.178;24.742;2023-03-26T15:42:25;98806.50;;;24.16;22.99
44103;BME280;29769;42.178;24.742;2023-03-26T15:44:56;98804.00;;;23.92;23.53
44103;BME280;29769;42.178;24.742;2023-03-26T15:50:36;98806.69;;;23.92;22.18
44103;BME280;29769;42.178;24.742;2023-03-26T15:57:02;98801.22;;;23.82;23.25
44103;BME280;29769;42.178;24.742;2023-03-26T16:00:00;98805.19;;;23.67;23.60
44103;BME280;29769;42.178;24.742;2023-03-26T16:09:07;98801.88;;;22.87;25.51
44103;BME280;29769;42.178;24.742;2023-03-26T16:14:44;98798.91;;;22.57;26.17
44103;BME280;29769;42.178;24.742;2023-03-26T16:24:24;98818.03;;;22.06;26.92
44103;BME280;29769;42.178;24.742;2023-03-26T16:32:44;98830.53;;;21.09;28.00
44103;BME280;29769;42.178;24.742;2023-03-26T16:35:39;98843.53;;;20.65;28.30
44103;BME280;29769;42.178;24.742;2023-03-26T16:38:25;98841.53;;;20.29;28.62
44103;BME280;29769;42.178;24.742;2023-03-26T16:41:16;98841.66;;;19.88;29.40
44103;BME280;29769;42.178;24.742;2023-03-26T16:44:15;98847.84;;;19.62;30.00
44103;BME280;29769;42.178;24.742;2023-03-26T16:50:22;98854.13;;;18.77;31.53
44103;BME280;29769;42.178;24.742;2023-03-26T16:56:32;98865.38;;;18.38;32.47
44103;BME280;29769;42.178;24.742;2023-03-26T17:14:50;98899.38;;;17.41;33.18
44103;BME280;29769;42.178;24.742;2023-03-26T17:26:59;98899.06;;;16.48;35.38
44103;BME280;29769;42.178;24.742;2023-03-26T17:39:03;98931.06;;;16.28;36.52
44103;BME280;29769;42.178;24.742;2023-03-26T17:42:29;98938.09;;;16.12;36.08
44103;BME280;29769;42.178;24.742;2023-03-26T17:45:25;98913.47;;;15.91;36.38
44103;BME280;29769;42.178;24.742;2023-03-26T17:48:18;98931.16;;;15.90;36.79
44103;BME280;29769;42.178;24.742;2023-03-26T17:51:41;98936.56;;;15.89;37.03
44103;BME280;29769;42.178;24.742;2023-03-26T17:54:44;98940.97;;;15.71;37.67
44103;BME280;29769;42.178;24.742;2023-03-26T17:57:39;98940.16;;;15.69;37.96
44103;BME280;29769;42.178;24.742;2023-03-26T18:03:14;98944.97;;;15.61;37.62
44103;BME280;29769;42.178;24.742;2023-03-26T18:06:45;98946.28;;;15.52;37.65
44103;BME280;29769;42.178;24.742;2023-03-26T18:13:03;98953.09;;;15.19;38.38
44103;BME280;29769;42.178;24.742;2023-03-26T18:16:10;98967.41;;;15.15;38.17
44103;BME280;29769;42.178;24.742;2023-03-26T18:18:58;98960.53;;;15.11;38.23
44103;BME280;29769;42.178;24.742;2023-03-26T18:21:46;98964.16;;;15.08;38.41
44103;BME280;29769;42.178;24.742;2023-03-26T18:24:38;98963.41;;;15.06;38.59
44103;BME280;29769;42.178;24.742;2023-03-26T18:27:26;98968.84;;;15.03;38.12
44103;BME280;29769;42.178;24.742;2023-03-26T18:30:15;98963.41;;;15.06;38.14
44103;BME280;29769;42.178;24.742;2023-03-26T18:33:08;98968.75;;;15.05;38.57
44103;BME280;29769;42.178;24.742;2023-03-26T18:35:55;98965.06;;;14.68;42.52
44103;BME280;29769;42.178;24.742;2023-03-26T18:38:40;98970.03;;;14.56;40.33
44103;BME280;29769;42.178;24.742;2023-03-26T18:41:34;98965.06;;;14.68;38.98
44103;BME280;29769;42.178;24.742;2023-03-26T18:44:22;98962.94;;;14.77;39.07
44103;BME280;29769;42.178;24.742;2023-03-26T18:47:09;98958.47;;;14.79;39.25
44103;BME280;29769;42.178;24.742;2023-03-26T18:49:55;98961.69;;;14.65;41.33
44103;BME280;29769;42.178;24.742;2023-03-26T18:52:41;98972.91;;;14.30;42.22
44103;BME280;29769;42.178;24.742;2023-03-26T18:55:28;98969.38;;;14.29;40.91
44103;BME280;29769;42.178;24.742;2023-03-26T18:58:34;98941.09;;;13.89;41.63
44103;BME280;29769;42.178;24.742;2023-03-26T19:01:20;98957.84;;;14.10;41.43
44103;BME280;29769;42.178;24.742;2023-03-26T19:04:06;98968.66;;;14.25;42.34
44103;BME280;29769;42.178;24.742;2023-03-26T19:06:52;98968.84;;;14.21;43.11
44103;BME280;29769;42.178;24.742;2023-03-26T19:09:39;98970.66;;;13.99;44.82
44103;BME280;29769;42.178;24.742;2023-03-26T19:12:30;98969.75;;;13.55;45.02
44103;BME280;29769;42.178;24.742;2023-03-26T19:15:17;98967.09;;;13.55;45.34
44103;BME280;29769;42.178;24.742;2023-03-26T19:18:04;98967.41;;;13.47;45.21
44103;BME280;29769;42.178;24.742;2023-03-26T19:20:59;98952.31;;;13.27;45.82
44103;BME280;29769;42.178;24.742;2023-03-26T19:23:46;98977.81;;;13.28;46.64
44103;BME280;29769;42.178;24.742;2023-03-26T19:26:31;98967.41;;;13.24;45.08
44103;BME280;29769;42.178;24.742;2023-03-26T19:29:21;98968.34;;;13.23;46.97
44103;BME280;29769;42.178;24.742;2023-03-26T19:32:19;98965.78;;;13.21;47.36
44103;BME280;29769;42.178;24.742;2023-03-26T19:35:19;98971.41;;;13.12;48.55
44103;BME280;29769;42.178;24.742;2023-03-26T19:38:17;98958.19;;;13.12;48.42
44103;BME280;29769;42.178;24.742;2023-03-26T19:41:04;98958.13;;;13.14;49.12
44103;BME280;29769;42.178;24.742;2023-03-26T19:43:53;98963.66;;;13.06;48.97
44103;BME280;29769;42.178;24.742;2023-03-26T19:46:43;98956.16;;;12.71;50.06
44103;BME280;29769;42.178;24.742;2023-03-26T19:52:35;98964.94;;;12.45;50.91
44103;BME280;29769;42.178;24.742;2023-03-26T19:55:21;98954.69;;;12.37;51.95
44103;BME280;29769;42.178;24.742;2023-03-26T19:58:10;98948.56;;;12.11;52.93
44103;BME280;29769;42.178;24.742;2023-03-26T20:00:55;98943.56;;;12.03;53.36
44103;BME280;29769;42.178;24.742;2023-03-26T20:03:41;98947.09;;;12.02;53.41
44103;BME280;29769;42.178;24.742;2023-03-26T20:06:27;98946.34;;;11.98;52.86
44103;BME280;29769;42.178;24.742;2023-03-26T20:09:12;98945.84;;;11.86;52.15
44103;BME280;29769;42.178;24.742;2023-03-26T20:11:57;98945.84;;;11.86;52.51